Time;durP1;ratioP1;P1;durP2;ratioP2;P2;SDS_P1;SDS_P2;PMS_P1;PMS_P2;Temp;Humidity;BMP_temperature;BMP_pressure;BME280_temperature;BME280_humidity;BME280_pressure;Samples;Min_cycle;Max_cycle;Signal;HPM_P1;HPM_P2
2022/04/01 00:00:14;;;;;;;2.70;1.80;;;6.30;68.20;;;;;;4999297;28;20056;-76
2022/04/01 00:02:44;;;;;;;1.83;1.58;;;6.30;68.20;;;;;;5000219;28;20025;-77
2022/04/01 00:05:10;;;;;;;2.15;1.85;;;6.30;68.20;;;;;;4999460;28;20036;-76
2022/04/01 00:07:40;;;;;;;2.05;1.77;;;6.30;68.30;;;;;;5007923;28;20035;-77
2022/04/01 00:10:07;;;;;;;2.72;2.10;;;6.30;68.20;;;;;;5032967;28;20018;-76
2022/04/01 00:12:33;;;;;;;1.70;1.55;;;6.30;68.20;;;;;;4993736;28;20140;-77
2022/04/01 00:14:58;;;;;;;1.77;1.60;;;6.20;68.20;;;;;;5014009;28;20505;-77
2022/04/01 00:17:24;;;;;;;2.28;1.80;;;6.20;68.20;;;;;;4981180;28;20038;-76
2022/04/01 00:19:50;;;;;;;2.00;1.70;;;6.20;68.20;;;;;;4966466;28;20036;-77
2022/04/01 00:22:16;;;;;;;2.40;1.80;;;6.20;68.20;;;;;;4998780;28;20033;-77
2022/04/01 00:24:41;;;;;;;2.15;1.92;;;6.20;68.20;;;;;;4978262;28;20040;-77
2022/04/01 00:27:07;;;;;;;2.30;1.90;;;6.20;68.20;;;;;;4992627;28;20092;-77
2022/04/01 00:29:33;;;;;;;3.25;2.00;;;6.20;68.20;;;;;;5005333;28;20402;-77
2022/04/01 00:31:59;;;;;;;2.75;2.05;;;6.20;68.20;;;;;;4997727;28;20140;-78
2022/04/01 00:34:26;;;;;;;2.25;1.75;;;6.20;68.20;;;;;;5008810;28;20063;-78
2022/04/01 00:36:54;;;;;;;2.00;1.63;;;6.20;68.20;;;;;;5010952;28;20108;-78
2022/04/01 00:39:21;;;;;;;1.90;1.67;;;6.10;68.20;;;;;;5012350;28;20029;-78
2022/04/01 00:41:49;;;;;;;1.98;1.77;;;6.10;68.20;;;;;;5032771;28;20116;-77
2022/04/01 00:44:24;;;;;;;1.95;1.67;;;6.10;68.20;;;;;;5009144;28;20033;-77
2022/04/01 00:46:54;;;;;;;2.38;1.63;;;6.10;68.30;;;;;;5014752;28;20904;-78
2022/04/01 00:49:21;;;;;;;2.50;2.00;;;6.10;68.20;;;;;;5024308;28;20398;-78
2022/04/01 00:51:50;;;;;;;2.13;1.70;;;6.10;68.20;;;;;;4998733;28;20065;-78
2022/04/01 00:54:17;;;;;;;1.70;1.60;;;6.10;68.30;;;;;;5009972;28;20026;-77
2022/04/01 00:56:44;;;;;;;2.95;1.90;;;6.10;68.30;;;;;;5012809;28;20033;-78
2022/04/01 00:59:10;;;;;;;2.22;1.70;;;6.10;68.30;;;;;;5015047;28;20083;-78
2022/04/01 01:01:37;;;;;;;2.03;1.77;;;6.10;68.30;;;;;;5013861;28;20034;-78
2022/04/01 01:04:08;;;;;;;2.08;1.80;;;6.10;68.30;;;;;;4995109;28;20120;-78
2022/04/01 01:06:44;;;;;;;1.60;1.50;;;6.00;68.20;;;;;;4995289;28;20034;-78
2022/04/01 01:09:11;;;;;;;2.00;1.80;;;6.00;68.30;;;;;;5008075;28;20026;-77
2022/04/01 01:11:37;;;;;;;2.50;2.00;;;6.00;68.20;;;;;;4996375;28;20029;-77
2022/04/01 01:14:05;;;;;;;2.10;1.90;;;6.00;68.30;;;;;;4992958;28;20022;-77
2022/04/01 01:16:31;;;;;;;1.85;1.65;;;6.00;68.20;;;;;;5013983;28;20113;-77
2022/04/01 01:19:05;;;;;;;3.15;2.10;;;6.00;68.30;;;;;;4983689;28;20550;-81
2022/04/01 01:21:32;;;;;;;2.00;1.80;;;6.00;68.30;;;;;;5013341;28;20034;-77
2022/04/01 01:24:04;;;;;;;2.17;1.85;;;6.00;68.30;;;;;;5006148;28;20150;-79
2022/04/01 01:26:34;;;;;;;2.88;1.90;;;6.00;68.30;;;;;;5005569;28;20518;-77
2022/04/01 01:29:00;;;;;;;1.95;1.67;;;6.00;68.30;;;;;;4995154;28;20379;-77
2022/04/01 01:31:26;;;;;;;1.70;1.60;;;5.90;68.20;;;;;;5006092;28;20045;-77
2022/04/01 01:33:55;;;;;;;2.20;1.90;;;5.90;68.30;;;;;;5011535;28;20076;-77
2022/04/01 01:36:24;;;;;;;2.08;1.90;;;5.90;68.30;;;;;;5013489;28;20022;-78
2022/04/01 01:38:51;;;;;;;1.83;1.73;;;5.90;68.30;;;;;;5013533;28;20030;-78
2022/04/01 01:41:17;;;;;;;2.20;2.00;;;5.90;68.30;;;;;;4995770;28;20036;-78
2022/04/01 01:43:43;;;;;;;2.22;2.00;;;5.90;68.20;;;;;;5003273;28;20048;-77
2022/04/01 01:46:10;;;;;;;2.25;1.90;;;5.90;68.30;;;;;;4996254;28;20033;-77
2022/04/01 01:48:37;;;;;;;2.70;2.00;;;5.90;68.30;;;;;;5006817;28;20489;-78
2022/04/01 01:56:32;;;;;;;2.00;1.75;;;5.90;68.90;;;;;;5029599;28;20099;-77
2022/04/01 01:59:01;;;;;;;3.05;1.80;;;5.90;68.30;;;;;;4981396;28;20033;-78
2022/04/01 02:01:27;;;;;;;2.35;1.83;;;5.90;68.30;;;;;;4991973;28;20034;-78
2022/04/01 02:03:53;;;;;;;2.15;1.80;;;5.80;68.30;;;;;;4996806;28;20099;-78
2022/04/01 02:06:22;;;;;;;2.00;1.80;;;5.80;68.30;;;;;;5008556;28;20110;-79
2022/04/01 02:08:54;;;;;;;2.45;2.03;;;5.80;68.30;;;;;;5008507;28;20029;-78
2022/04/01 02:11:21;;;;;;;1.92;1.67;;;5.80;68.30;;;;;;5005054;28;20144;-78
2022/04/01 02:13:50;;;;;;;1.95;1.80;;;5.80;68.30;;;;;;4995968;28;20064;-78
2022/04/01 02:16:18;;;;;;;1.83;1.63;;;5.80;68.30;;;;;;4996292;28;20033;-78
2022/04/01 02:18:44;;;;;;;2.42;1.70;;;5.80;68.40;;;;;;4992961;28;20112;-77
2022/04/01 02:21:11;;;;;;;1.92;1.67;;;5.80;68.40;;;;;;4997015;28;20041;-76
2022/04/01 02:23:38;;;;;;;2.42;1.88;;;5.80;68.40;;;;;;4986614;28;20026;-77
2022/04/01 02:26:07;;;;;;;2.25;1.80;;;5.80;68.40;;;;;;5017391;28;20087;-77
2022/04/01 02:28:34;;;;;;;2.00;1.80;;;5.80;68.40;;;;;;4989027;28;20038;-76
2022/04/01 02:31:01;;;;;;;2.15;1.95;;;5.70;68.30;;;;;;5008716;28;20044;-76
2022/04/01 02:33:46;;;;;;;2.53;1.85;;;5.70;69.00;;;;;;5007036;28;20040;-76
2022/04/01 02:36:12;;;;;;;2.13;1.80;;;5.70;68.30;;;;;;4979705;28;20025;-77
2022/04/01 02:38:40;;;;;;;1.83;1.70;;;5.70;68.30;;;;;;4980451;28;20041;-78
2022/04/01 02:41:07;;;;;;;1.70;1.60;;;5.70;68.40;;;;;;4995803;28;20029;-77
2022/04/01 02:43:35;;;;;;;2.00;1.77;;;5.70;68.40;;;;;;5011087;28;20071;-77
2022/04/01 02:46:03;;;;;;;2.05;1.77;;;5.70;68.40;;;;;;4996128;28;20029;-76
2022/04/01 02:48:31;;;;;;;1.80;1.65;;;5.70;68.40;;;;;;4995512;28;20030;-77
2022/04/01 02:51:24;;;;;;;1.85;1.70;;;5.70;68.40;;;;;;4989543;28;20565;-77
2022/04/01 02:53:53;;;;;;;1.60;1.50;;;5.70;69.00;;;;;;5009752;28;20030;-77
2022/04/01 02:56:19;;;;;;;1.70;1.60;;;5.70;68.40;;;;;;4978780;28;20030;-77
2022/04/01 02:58:44;;;;;;;2.35;1.95;;;5.60;68.30;;;;;;4990188;28;20048;-76
2022/04/01 03:01:11;;;;;;;2.75;1.83;;;5.60;68.40;;;;;;4984792;28;20046;-77
2022/04/01 03:03:37;;;;;;;2.10;1.80;;;5.70;68.40;;;;;;4991182;28;20111;-78
2022/04/01 03:06:06;;;;;;;2.08;1.70;;;5.70;68.40;;;;;;5008247;28;20028;-77
2022/04/01 03:08:32;;;;;;;2.20;1.70;;;5.70;68.40;;;;;;4989710;28;20033;-77
2022/04/01 03:10:58;;;;;;;1.95;1.77;;;5.60;68.40;;;;;;4973432;28;20037;-77
2022/04/01 03:13:26;;;;;;;2.33;2.00;;;5.60;68.40;;;;;;4994068;28;20037;-77
2022/04/01 03:16:17;;;;;;;2.55;2.00;;;5.60;68.40;;;;;;5005596;28;20442;-77
2022/04/01 03:18:48;;;;;;;2.67;2.10;;;5.60;68.40;;;;;;5018129;28;20057;-77
2022/04/01 03:21:15;;;;;;;2.15;1.92;;;5.60;68.40;;;;;;4994301;28;20030;-78
2022/04/01 03:23:47;;;;;;;2.03;1.83;;;5.60;68.40;;;;;;4980565;28;20043;-76
2022/04/01 03:26:16;;;;;;;2.10;1.90;;;5.60;68.40;;;;;;4994712;28;20026;-77
2022/04/01 03:28:48;;;;;;;1.92;1.75;;;5.60;68.40;;;;;;4996226;28;20033;-77
2022/04/01 03:31:15;;;;;;;1.83;1.70;;;5.60;68.40;;;;;;4996036;28;20030;-77
2022/04/01 03:33:41;;;;;;;2.00;1.80;;;5.60;68.40;;;;;;4993204;28;20018;-77
2022/04/01 03:36:09;;;;;;;2.25;1.80;;;5.50;68.40;;;;;;4979592;28;20041;-77
2022/04/01 03:38:40;;;;;;;2.95;2.47;;;5.60;68.50;;;;;;4996872;28;20033;-77
2022/04/01 03:41:11;;;;;;;2.47;1.92;;;5.50;68.40;;;;;;4993424;28;20033;-77
2022/04/01 03:43:37;;;;;;;2.30;2.03;;;5.50;68.40;;;;;;4995360;28;20033;-76
2022/04/01 03:46:15;;;;;;;2.00;1.80;;;5.50;68.40;;;;;;4993943;28;20022;-77
2022/04/01 03:49:00;;;;;;;2.47;2.13;;;5.50;68.40;;;;;;5000334;28;20030;-79
2022/04/01 03:51:29;;;;;;;2.10;1.90;;;5.50;68.40;;;;;;5008254;28;20037;-77
2022/04/01 03:53:58;;;;;;;2.65;1.90;;;5.50;68.40;;;;;;4993896;28;20083;-77
2022/04/01 03:56:37;;;;;;;2.88;2.20;;;5.50;68.40;;;;;;4997661;28;20022;-77
2022/04/01 03:59:23;;;;;;;;;;;5.50;68.40;;;;;;5007981;28;20411;-77
2022/04/01 04:02:24;;;;;;;1.80;1.70;;;5.50;68.40;;;;;;5003381;28;19921;-77
2022/04/01 04:04:54;;;;;;;2.00;1.80;;;5.40;68.30;;;;;;5006501;28;20029;-77
2022/04/01 04:07:20;;;;;;;2.15;1.90;;;5.40;68.50;;;;;;5009618;28;20577;-77
2022/04/01 04:09:49;;;;;;;2.33;2.03;;;5.40;68.50;;;;;;4999405;28;20077;-77
2022/04/01 04:12:18;;;;;;;2.10;1.90;;;5.40;68.50;;;;;;4998266;28;20116;-77
2022/04/01 04:14:52;;;;;;;1.83;1.70;;;5.40;68.50;;;;;;4994187;28;20057;-77
2022/04/01 04:17:42;;;;;;;2.55;1.88;;;5.40;68.50;;;;;;5014187;28;20512;-77
2022/04/01 04:20:13;;;;;;;2.45;2.05;;;5.40;68.50;;;;;;4996559;28;20441;-77
2022/04/01 04:22:55;;;;;;;2.90;1.88;;;5.40;68.50;;;;;;5011435;28;20021;-77
2022/04/01 04:25:25;;;;;;;2.65;2.10;;;5.40;68.60;;;;;;4996688;28;20037;-77
2022/04/01 04:28:00;;;;;;;2.08;1.80;;;5.40;68.60;;;;;;4999672;28;20022;-77
2022/04/01 04:30:37;;;;;;;2.47;1.95;;;5.40;68.50;;;;;;5013598;28;20064;-78
2022/04/01 04:33:28;;;;;;;3.55;1.80;;;5.40;68.50;;;;;;5012446;28;20163;-76
2022/04/01 04:35:54;;;;;;;2.28;1.80;;;5.40;68.50;;;;;;5010147;28;20457;-77
2022/04/01 04:38:26;;;;;;;2.33;1.95;;;5.40;69.20;;;;;;5000438;28;20033;-77
2022/04/01 04:40:52;;;;;;;2.22;1.95;;;5.40;68.50;;;;;;4997730;28;20025;-78
2022/04/01 04:43:23;;;;;;;2.13;1.85;;;5.40;68.50;;;;;;4996404;28;20080;-78
2022/04/01 04:45:52;;;;;;;2.40;1.98;;;5.40;68.50;;;;;;5013648;28;20029;-77
2022/04/01 04:48:19;;;;;;;2.28;1.85;;;5.40;68.50;;;;;;4999723;28;20044;-76
2022/04/01 04:50:49;;;;;;;2.40;1.98;;;5.40;68.50;;;;;;5004682;28;20032;-78
2022/04/01 04:53:19;;;;;;;2.17;1.95;;;5.40;68.50;;;;;;5005432;28;20033;-77
2022/04/01 04:55:47;;;;;;;2.00;1.80;;;5.40;68.50;;;;;;4997465;28;20017;-77
2022/04/01 04:58:20;;;;;;;2.00;1.80;;;5.40;68.50;;;;;;4997529;28;20091;-77
2022/04/01 05:00:56;;;;;;;2.40;1.90;;;5.40;68.50;;;;;;4999144;28;20049;-78
2022/04/01 05:04:01;;;;;;;2.33;1.95;;;5.40;68.40;;;;;;5020755;28;20108;-77
2022/04/01 05:06:31;;;;;;;2.88;1.80;;;5.30;68.40;;;;;;5006066;28;20079;-76
2022/04/01 05:10:00;;;;;;;2.63;1.90;;;5.30;68.40;;;;;;5010246;28;20056;-77
2022/04/01 05:13:16;;;;;;;2.38;1.90;;;5.30;68.50;;;;;;4969465;28;20068;-77
2022/04/01 05:16:05;;;;;;;2.10;1.75;;;5.30;68.50;;;;;;4978003;28;20136;-77
2022/04/01 05:18:45;;;;;;;1.95;1.70;;;5.30;68.40;;;;;;4992302;28;20033;-77
2022/04/01 05:21:22;;;;;;;2.13;1.90;;;5.30;68.50;;;;;;5008462;28;20029;-78
2022/04/01 05:24:12;;;;;;;2.65;1.70;;;5.30;68.50;;;;;;5001739;28;20494;-78
2022/04/01 05:26:43;;;;;;;1.95;1.70;;;5.30;68.50;;;;;;4996229;28;20068;-77
2022/04/01 05:29:25;;;;;;;1.65;1.55;;;5.20;68.40;;;;;;5019237;28;20048;-77
2022/04/01 05:32:10;;;;;;;2.53;1.92;;;5.20;68.50;;;;;;4993431;28;20472;-77
2022/04/01 05:34:42;;;;;;;2.13;1.55;;;5.20;68.50;;;;;;5001715;28;20022;-77
2022/04/01 05:37:08;;;;;;;1.85;1.50;;;5.20;68.40;;;;;;4994451;28;20041;-80
2022/04/01 05:39:38;;;;;;;2.13;1.80;;;5.20;69.00;;;;;;5014207;28;20029;-78
2022/04/01 05:42:10;;;;;;;1.60;1.30;;;5.20;68.40;;;;;;4993156;28;20033;-76
2022/04/01 05:44:47;;;;;;;1.80;1.60;;;5.20;68.50;;;;;;4998453;28;20088;-76
2022/04/01 05:47:12;;;;;;;2.15;1.75;;;5.20;68.40;;;;;;4997300;28;20026;-77
2022/04/01 05:49:43;;;;;;;2.13;1.80;;;5.20;68.40;;;;;;4981993;28;20025;-77
2022/04/01 05:52:13;;;;;;;2.28;1.92;;;5.20;68.40;;;;;;5010824;28;20031;-75
2022/04/01 05:54:41;;;;;;;1.95;1.75;;;5.20;68.40;;;;;;5013130;28;20041;-75
2022/04/01 05:57:10;;;;;;;2.13;1.77;;;5.20;68.40;;;;;;4981522;28;20573;-76
2022/04/01 05:59:36;;;;;;;2.28;1.58;;;5.20;68.40;;;;;;4993768;28;20030;-76
2022/04/01 06:02:25;;;;;;;2.47;1.92;;;5.20;68.40;;;;;;5003401;28;20096;-76
2022/04/01 06:05:16;;;;;;;1.95;1.70;;;5.20;68.40;;;;;;5001900;28;20044;-76
2022/04/01 06:08:10;;;;;;;2.83;1.92;;;5.20;68.40;;;;;;5000190;28;20048;-77
2022/04/01 06:10:54;;;;;;;2.53;1.70;;;5.20;68.50;;;;;;5001462;28;20029;-76
2022/04/01 06:13:58;;;;;;;2.35;1.80;;;5.20;68.50;;;;;;5024419;28;20435;-76
2022/04/01 06:16:57;;;;;;;1.92;1.73;;;5.10;68.40;;;;;;5009444;28;20104;-76
2022/04/01 06:19:31;;;;;;;1.77;1.60;;;5.10;68.40;;;;;;5012356;28;20093;-77
2022/04/01 06:22:14;;;;;;;2.10;1.85;;;5.10;68.50;;;;;;5013650;28;20037;-77
2022/04/01 06:25:16;;;;;;;2.10;1.70;;;5.10;68.50;;;;;;5012992;28;20040;-77
2022/04/01 06:27:54;;;;;;;1.85;1.75;;;5.10;68.50;;;;;;4998048;28;20026;-77
2022/04/01 06:30:22;;;;;;;3.15;1.85;;;5.10;68.50;;;;;;5010449;28;20029;-76
2022/04/01 06:33:01;;;;;;;1.92;1.73;;;5.10;68.50;;;;;;4990946;28;20030;-76
2022/04/01 06:35:59;;;;;;;2.10;1.88;;;5.10;68.50;;;;;;5012595;28;20478;-76
2022/04/01 06:38:41;;;;;;;2.30;1.55;;;5.10;68.50;;;;;;5012593;28;20036;-76
2022/04/01 06:41:21;;;;;;;2.35;1.88;;;5.10;68.50;;;;;;5012547;28;20037;-75
2022/04/01 06:44:13;;;;;;;2.13;1.42;;;5.10;68.50;;;;;;4985566;28;20478;-75
2022/04/01 06:47:11;;;;;;;2.72;1.95;;;5.10;68.40;;;;;;5016576;28;20029;-73
2022/04/01 06:49:37;;;;;;;2.08;1.70;;;5.10;68.40;;;;;;4992600;28;20070;-76
2022/04/01 06:52:32;;;;;;;1.63;1.50;;;5.10;68.50;;;;;;4953919;28;20043;-76
2022/04/01 06:55:17;;;;;;;2.20;1.58;;;5.10;68.50;;;;;;4999840;28;20041;-76
2022/04/01 06:58:00;;;;;;;2.10;1.90;;;5.10;68.50;;;;;;4996928;28;20045;-76
2022/04/01 07:00:40;;;;;;;1.77;1.63;;;5.10;68.50;;;;;;4993623;28;20168;-77
2022/04/01 07:03:10;;;;;;;2.28;1.80;;;5.10;68.50;;;;;;4998992;28;20037;-76
2022/04/01 07:05:37;;;;;;;1.80;1.63;;;5.10;68.50;;;;;;4991861;28;20538;-77
2022/04/01 07:08:04;;;;;;;2.53;2.00;;;5.10;68.50;;;;;;4980454;28;20022;-77
2022/04/01 07:10:30;;;;;;;1.90;1.70;;;5.10;68.50;;;;;;5012618;28;20045;-75
2022/04/01 07:12:56;;;;;;;2.45;1.95;;;5.10;68.50;;;;;;4994731;28;20123;-76
2022/04/01 07:15:22;;;;;;;2.88;1.90;;;5.10;68.50;;;;;;5021050;28;20037;-75
2022/04/01 07:17:48;;;;;;;2.17;1.70;;;5.10;68.50;;;;;;5012130;28;20659;-76
2022/04/01 07:20:15;;;;;;;2.15;1.85;;;5.10;68.50;;;;;;5012401;28;20108;-76
2022/04/01 07:22:42;;;;;;;2.17;1.70;;;5.10;68.50;;;;;;5011293;28;20052;-75
2022/04/01 07:25:12;;;;;;;1.80;1.70;;;5.10;68.50;;;;;;5009365;28;20033;-76
2022/04/01 07:27:38;;;;;;;1.95;1.75;;;5.10;68.50;;;;;;4977850;28;20034;-76
2022/04/01 07:30:08;;;;;;;3.05;2.25;;;5.10;68.50;;;;;;4996566;28;20033;-77
2022/04/01 07:32:35;;;;;;;2.05;1.80;;;5.10;68.50;;;;;;4996302;28;20076;-77
2022/04/01 07:35:03;;;;;;;2.35;1.75;;;5.10;68.50;;;;;;5028864;28;20018;-77
2022/04/01 07:37:29;;;;;;;1.95;1.63;;;5.10;68.50;;;;;;5004261;28;20042;-77
2022/04/01 07:39:57;;;;;;;1.95;1.70;;;5.10;68.50;;;;;;4991060;28;20462;-78
2022/04/01 07:42:25;;;;;;;2.08;1.80;;;5.10;68.50;;;;;;4991593;28;20545;-78
2022/04/01 07:44:52;;;;;;;2.00;1.80;;;5.10;68.50;;;;;;5032781;28;20108;-78
2022/04/01 07:47:18;;;;;;;2.22;2.00;;;5.10;68.50;;;;;;5008226;28;20120;-77
2022/04/01 07:49:46;;;;;;;1.80;1.67;;;5.20;68.60;;;;;;4999047;28;20064;-78
2022/04/01 07:52:14;;;;;;;2.00;1.67;;;5.10;68.50;;;;;;5015959;28;20529;-77
2022/04/01 07:54:42;;;;;;;2.15;1.65;;;5.10;68.50;;;;;;5008400;28;20068;-77
2022/04/01 07:57:09;;;;;;;2.13;1.80;;;5.20;68.50;;;;;;5015440;28;20022;-77
2022/04/01 07:59:35;;;;;;;1.83;1.65;;;5.20;68.50;;;;;;5014546;28;20021;-77
2022/04/01 08:02:01;;;;;;;2.03;1.83;;;5.20;68.60;;;;;;4990978;28;20423;-77
2022/04/01 08:04:27;;;;;;;1.60;1.50;;;5.20;68.60;;;;;;4994554;28;20076;-77
2022/04/01 08:06:54;;;;;;;1.70;1.60;;;5.20;68.50;;;;;;5029719;28;20537;-78
2022/04/01 08:09:20;;;;;;;2.33;1.63;;;5.20;68.50;;;;;;4991321;28;20077;-77
2022/04/01 08:11:46;;;;;;;2.05;1.63;;;5.20;68.50;;;;;;5007631;28;20084;-78
2022/04/01 08:14:12;;;;;;;1.80;1.70;;;5.20;68.50;;;;;;4998460;28;20017;-78
2022/04/01 08:16:38;;;;;;;1.90;1.50;;;5.20;68.50;;;;;;5014871;28;20269;-78
2022/04/01 08:19:04;;;;;;;1.60;1.50;;;5.20;68.50;;;;;;4983291;28;20034;-78
2022/04/01 08:21:32;;;;;;;2.00;1.70;;;5.20;68.60;;;;;;4999066;28;20069;-78
2022/04/01 08:24:00;;;;;;;1.75;1.50;;;5.20;68.60;;;;;;4993803;28;20033;-77
2022/04/01 08:26:26;;;;;;;2.47;1.75;;;5.20;68.50;;;;;;5013584;28;20489;-77
2022/04/01 08:28:52;;;;;;;2.05;1.60;;;5.20;68.50;;;;;;5033016;28;20051;-77
2022/04/01 08:31:20;;;;;;;2.55;1.73;;;5.20;68.50;;;;;;5015695;28;20049;-78
2022/04/01 08:33:46;;;;;;;2.88;1.75;;;5.30;68.50;;;;;;5024676;28;20041;-77
2022/04/01 08:36:12;;;;;;;1.73;1.48;;;5.30;68.50;;;;;;4999409;28;20071;-77
2022/04/01 08:38:40;;;;;;;2.40;1.70;;;5.30;68.50;;;;;;5012802;28;20104;-77
2022/04/01 08:41:06;;;;;;;1.75;1.58;;;5.30;69.10;;;;;;4995209;28;20120;-78
2022/04/01 08:43:34;;;;;;;1.80;1.67;;;5.30;68.50;;;;;;4995205;28;20036;-76
2022/04/01 08:46:03;;;;;;;1.40;1.27;;;5.30;68.50;;;;;;5014949;28;20040;-77
2022/04/01 08:48:31;;;;;;;1.55;1.42;;;5.30;68.50;;;;;;4997005;28;20108;-77
2022/04/01 08:50:57;;;;;;;1.40;1.30;;;5.30;68.40;;;;;;4990040;28;20056;-78
2022/04/01 08:53:23;;;;;;;1.35;1.27;;;5.30;68.50;;;;;;4998698;28;20034;-77
2022/04/01 08:55:55;;;;;;;1.55;1.45;;;5.30;68.40;;;;;;5032492;28;20541;-77
2022/04/01 08:58:23;;;;;;;1.45;1.35;;;5.30;68.40;;;;;;5015062;28;20116;-77
2022/04/01 09:00:51;;;;;;;2.15;1.58;;;5.30;68.40;;;;;;5032390;28;20116;-78
2022/04/01 09:03:20;;;;;;;1.67;1.50;;;5.30;68.40;;;;;;5014072;28;20029;-76
2022/04/01 09:05:51;;;;;;;1.52;1.40;;;5.40;68.40;;;;;;5024792;28;20417;-77
2022/04/01 09:08:23;;;;;;;1.42;1.33;;;5.40;68.40;;;;;;5020918;28;20038;-76
2022/04/01 09:11:01;;;;;;;1.52;1.40;;;5.40;68.40;;;;;;5009323;28;20033;-77
2022/04/01 09:13:55;;;;;;;1.85;1.48;;;5.40;68.40;;;;;;5014471;28;20033;-76
2022/04/01 09:16:39;;;;;;;1.30;1.20;;;5.40;68.40;;;;;;5004736;28;20107;-77
2022/04/01 09:19:06;;;;;;;1.70;1.42;;;5.40;68.40;;;;;;5013917;28;20390;-77
2022/04/01 09:21:33;;;;;;;1.40;1.30;;;5.40;68.40;;;;;;4997537;28;20454;-78
2022/04/01 09:24:00;;;;;;;1.40;1.30;;;5.40;68.40;;;;;;5014183;28;20055;-77
2022/04/01 09:26:36;;;;;;;1.73;1.40;;;5.40;68.40;;;;;;4998558;28;20037;-77
2022/04/01 09:29:04;;;;;;;2.42;1.60;;;5.40;68.40;;;;;;5008975;28;20029;-76
2022/04/01 09:31:40;;;;;;;2.05;1.42;;;5.50;68.40;;;;;;5013994;28;20077;-78
2022/04/01 09:34:13;;;;;;;2.22;1.42;;;5.50;68.40;;;;;;5014264;28;20025;-78
2022/04/01 09:36:41;;;;;;;1.63;1.30;;;5.50;68.40;;;;;;5004258;28;20393;-76
2022/04/01 09:39:18;;;;;;;1.50;1.40;;;5.50;68.30;;;;;;5007426;28;20028;-77
2022/04/01 09:41:44;;;;;;;1.60;1.50;;;5.50;68.40;;;;;;4997067;28;20409;-77
2022/04/01 09:44:24;;;;;;;1.27;1.23;;;5.60;68.30;;;;;;5013945;28;20022;-77
2022/04/01 09:47:03;;;;;;;1.40;1.30;;;5.60;68.40;;;;;;4996946;28;20022;-77
2022/04/01 09:49:33;;;;;;;1.70;1.60;;;5.60;68.40;;;;;;5024249;28;20064;-76
2022/04/01 09:52:00;;;;;;;1.95;1.50;;;5.60;68.40;;;;;;4987547;28;20084;-77
2022/04/01 09:54:26;;;;;;;1.60;1.50;;;5.60;68.40;;;;;;4996785;28;20028;-77
2022/04/01 09:56:55;;;;;;;1.85;1.58;;;5.70;68.40;;;;;;5030529;28;20474;-77
2022/04/01 09:59:24;;;;;;;1.75;1.58;;;5.70;68.40;;;;;;4996639;28;20038;-78
2022/04/01 10:01:50;;;;;;;1.73;1.50;;;5.70;68.40;;;;;;4992559;28;20042;-77
2022/04/01 10:04:16;;;;;;;1.80;1.60;;;5.70;68.40;;;;;;4992775;28;20036;-78
2022/04/01 10:06:42;;;;;;;1.95;1.60;;;5.70;68.40;;;;;;4990002;28;20026;-76
2022/04/01 10:09:10;;;;;;;1.88;1.40;;;5.80;68.40;;;;;;5007156;28;20096;-76
2022/04/01 10:11:38;;;;;;;1.98;1.73;;;5.80;68.40;;;;;;5006936;28;20033;-77
2022/04/01 10:14:18;;;;;;;1.85;1.60;;;5.80;68.30;;;;;;5009254;28;20022;-76
2022/04/01 10:16:46;;;;;;;1.77;1.67;;;5.80;68.40;;;;;;5002920;28;20041;-77
2022/04/01 10:19:37;;;;;;;2.03;1.60;;;5.80;68.30;;;;;;5009551;28;20113;-77
2022/04/01 10:22:03;;;;;;;1.92;1.65;;;5.90;68.50;;;;;;4999460;28;20113;-77
2022/04/01 10:24:52;;;;;;;2.03;1.63;;;5.90;68.30;;;;;;4991429;28;20522;-76
2022/04/01 10:27:46;;;;;;;1.83;1.67;;;5.90;68.40;;;;;;5009913;28;20658;-77
2022/04/01 10:30:16;;;;;;;2.17;1.70;;;5.90;68.40;;;;;;5004483;28;20041;-76
2022/04/01 10:32:44;;;;;;;2.17;1.73;;;6.00;68.40;;;;;;5007120;28;20110;-77
2022/04/01 10:35:30;;;;;;;2.22;1.77;;;6.00;68.50;;;;;;4992996;28;20033;-77
2022/04/01 10:38:05;;;;;;;3.05;1.80;;;6.00;68.50;;;;;;5001942;28;20025;-76
2022/04/01 10:40:33;;;;;;;;;;;6.10;68.50;;;;;;5002639;28;20384;-77
2022/04/01 10:43:09;;;;;;;2.40;1.80;;;6.10;68.40;;;;;;4999315;28;19943;-76
2022/04/01 10:45:39;;;;;;;1.58;1.45;;;6.10;68.40;;;;;;5009417;28;20033;-76
2022/04/01 10:53:57;;;;;;;2.97;2.03;;;6.20;68.60;;;;;;5008910;28;20034;-76
2022/04/01 10:56:23;;;;;;;2.13;1.92;;;6.30;68.50;;;;;;4974602;28;20038;-76
2022/04/01 10:59:13;;;;;;;2.80;2.03;;;6.30;68.50;;;;;;5005917;28;20042;-75
2022/04/01 11:01:52;;;;;;;3.60;2.10;;;6.30;68.60;;;;;;5003565;28;20046;-76
2022/04/01 11:04:18;;;;;;;2.88;2.00;;;6.40;68.60;;;;;;5002578;28;20053;-76
2022/04/01 11:06:53;;;;;;;3.55;2.33;;;6.40;68.50;;;;;;5007960;28;21295;-76
2022/04/01 11:09:38;;;;;;;2.28;2.00;;;6.50;68.60;;;;;;5010241;28;20061;-76
2022/04/01 11:12:27;;;;;;;2.88;2.03;;;6.50;68.60;;;;;;5010332;28;20040;-76
2022/04/01 11:14:59;;;;;;;2.45;1.90;;;6.50;68.50;;;;;;5005188;28;20036;-75
2022/04/01 11:17:34;;;;;;;2.30;2.00;;;6.60;68.50;;;;;;5014548;28;20382;-76
2022/04/01 11:20:15;;;;;;;2.70;2.03;;;6.60;68.50;;;;;;5013641;28;20030;-75
2022/04/01 11:22:53;;;;;;;2.75;2.17;;;6.60;68.40;;;;;;5012737;28;20057;-76
2022/04/01 11:25:24;;;;;;;2.42;1.88;;;6.70;68.40;;;;;;5013358;28;20038;-76
2022/04/01 11:28:01;;;;;;;3.30;2.00;;;6.70;68.40;;;;;;5014460;28;20057;-76
2022/04/01 11:30:35;;;;;;;3.72;2.40;;;6.80;68.40;;;;;;4993433;28;20034;-77
2022/04/01 11:33:06;;;;;;;3.88;2.10;;;6.80;68.40;;;;;;5013171;28;20426;-76
2022/04/01 11:35:36;;;;;;;3.42;2.10;;;6.80;68.30;;;;;;5013441;28;20125;-77
2022/04/01 11:38:02;;;;;;;2.00;1.80;;;6.90;68.30;;;;;;5014052;28;20038;-77
2022/04/01 11:40:34;;;;;;;2.38;2.08;;;6.90;68.20;;;;;;5006097;28;20030;-75
2022/04/01 11:43:08;;;;;;;3.42;2.20;;;6.90;68.20;;;;;;5004431;28;20045;-75
2022/04/01 11:45:44;;;;;;;2.88;2.05;;;6.90;68.20;;;;;;5012531;28;20030;-75
2022/04/01 11:48:37;;;;;;;3.85;2.28;;;7.00;68.20;;;;;;5005096;28;20485;-76
2022/04/01 11:51:10;;;;;;;2.70;2.03;;;7.00;68.30;;;;;;5012189;28;20034;-77
2022/04/01 11:53:41;;;;;;;2.97;2.20;;;7.00;68.10;;;;;;5012982;28;20037;-78
2022/04/01 11:56:10;;;;;;;3.40;2.30;;;7.10;68.20;;;;;;5013277;28;20212;-78
2022/04/01 11:58:57;;;;;;;2.78;2.17;;;7.10;68.10;;;;;;5015419;28;20053;-76
2022/04/01 12:01:31;;;;;;;2.90;2.13;;;7.10;68.20;;;;;;5007184;28;20054;-76
2022/04/01 12:04:05;;;;;;;2.92;2.17;;;7.20;68.10;;;;;;5012515;28;20025;-76
2022/04/01 12:09:15;;;;;;;3.30;2.65;;;7.20;68.10;;;;;;5016679;28;20045;-76
2022/04/01 12:11:45;;;;;;;3.85;2.35;;;7.20;68.00;;;;;;5029901;28;20029;-77
2022/04/01 12:14:11;;;;;;;3.50;2.50;;;7.20;68.00;;;;;;5013243;28;20033;-77
2022/04/01 12:16:41;;;;;;;3.22;2.30;;;7.20;68.00;;;;;;4998439;28;20613;-77
2022/04/01 12:19:13;;;;;;;3.25;2.58;;;7.30;68.10;;;;;;4996679;28;20030;-78
2022/04/01 12:21:39;;;;;;;4.00;2.40;;;7.30;68.00;;;;;;5032697;28;20096;-77
2022/04/01 12:24:05;;;;;;;2.97;2.22;;;7.30;68.00;;;;;;5014921;28;20060;-77
2022/04/01 12:26:31;;;;;;;3.10;2.50;;;7.30;67.90;;;;;;4995127;28;20433;-77
2022/04/01 12:28:57;;;;;;;3.10;2.40;;;7.40;68.00;;;;;;5014980;28;20083;-77
2022/04/01 12:31:27;;;;;;;3.20;2.50;;;7.40;68.00;;;;;;4994825;28;20038;-76
2022/04/01 12:33:58;;;;;;;3.40;2.58;;;7.40;67.90;;;;;;5024479;28;20109;-78
2022/04/01 12:36:34;;;;;;;3.47;2.60;;;7.40;67.90;;;;;;4998607;28;20099;-78
2022/04/01 12:39:08;;;;;;;4.07;2.47;;;7.50;68.00;;;;;;5023512;28;20026;-76
2022/04/01 12:41:34;;;;;;;4.25;2.63;;;7.50;67.90;;;;;;5014716;28;20036;-77
2022/04/01 12:44:11;;;;;;;4.35;2.90;;;7.50;67.80;;;;;;4998350;28;20104;-77
2022/04/01 12:46:37;;;;;;;3.95;2.50;;;7.60;67.90;;;;;;5008826;28;20029;-77
2022/04/01 12:49:13;;;;;;;3.80;2.67;;;7.60;67.80;;;;;;4981172;28;20037;-78
2022/04/01 12:51:47;;;;;;;3.55;2.50;;;7.60;67.80;;;;;;5014281;28;20037;-76
2022/04/01 12:54:33;;;;;;;4.07;2.83;;;7.60;67.70;;;;;;5024327;28;20148;-76
2022/04/01 12:57:19;;;;;;;4.38;2.80;;;7.60;67.70;;;;;;5031937;28;20548;-78
2022/04/01 12:59:46;;;;;;;3.60;2.50;;;7.60;67.70;;;;;;5032041;28;20040;-79
2022/04/01 13:02:13;;;;;;;4.18;2.42;;;7.70;67.60;;;;;;5012672;28;20139;-77
2022/04/01 13:04:45;;;;;;;3.80;2.65;;;7.70;67.60;;;;;;5014248;28;20079;-77
2022/04/01 13:07:13;;;;;;;4.03;2.97;;;7.70;67.60;;;;;;5016717;28;20095;-76
2022/04/01 13:09:49;;;;;;;4.13;2.72;;;7.70;67.50;;;;;;5014564;28;20057;-76
2022/04/01 13:12:23;;;;;;;3.58;2.63;;;7.70;67.50;;;;;;5014954;28;20466;-76
2022/04/01 13:15:27;;;;;;;3.13;2.33;;;7.70;67.50;;;;;;5021105;28;20042;-77
2022/04/01 13:18:00;;;;;;;4.00;2.78;;;7.80;67.60;;;;;;4958850;28;20033;-75
2022/04/01 13:20:35;;;;;;;3.35;2.58;;;7.80;67.40;;;;;;5032064;28;20100;-75
2022/04/01 13:23:03;;;;;;;;;;;7.80;67.40;;;;;;4995352;28;20046;-76
2022/04/01 13:25:31;;;;;;;3.28;2.35;;;7.80;67.40;;;;;;5020689;28;19953;-76
2022/04/01 13:27:57;;;;;;;3.75;2.42;;;7.90;67.40;;;;;;4995151;28;20088;-75
2022/04/01 13:30:24;;;;;;;3.60;2.60;;;7.90;67.50;;;;;;4994624;28;20054;-76
2022/04/01 13:32:50;;;;;;;3.55;2.58;;;7.90;67.50;;;;;;5031640;28;20108;-75
2022/04/01 13:35:16;;;;;;;4.20;2.78;;;8.00;67.50;;;;;;5013901;28;20101;-77
2022/04/01 13:37:43;;;;;;;3.75;2.72;;;8.00;67.40;;;;;;5030968;28;20025;-76